Time;durP1;ratioP1;P1;durP2;ratioP2;P2;SDS_P1;SDS_P2;PMS_P1;PMS_P2;Temp;Humidity;BMP_temperature;BMP_pressure;BME280_temperature;BME280_humidity;BME280_pressure;Samples;Min_cycle;Max_cycle;Signal;HPM_P1;HPM_P2
2022/12/26 00:01:21;;;;;;;42.25;13.75;;;8.10;99.90;;;;;;5119319;27;20175;-83
2022/12/26 00:03:47;;;;;;;39.88;14.10;;;8.00;99.90;;;;;;5106411;27;20122;-82
2022/12/26 00:06:15;;;;;;;41.60;13.80;;;8.10;99.90;;;;;;5106443;27;20066;-82
2022/12/26 00:08:41;;;;;;;53.90;14.63;;;8.10;99.90;;;;;;5106583;27;20119;-82
2022/12/26 00:11:07;;;;;;;47.70;14.57;;;8.10;99.90;;;;;;5124518;27;20071;-82
2022/12/26 00:13:33;;;;;;;39.97;14.27;;;8.10;99.90;;;;;;5100451;27;20469;-83
2022/12/26 00:15:58;;;;;;;39.42;13.98;;;8.10;99.90;;;;;;5127549;27;20377;-82
2022/12/26 00:18:24;;;;;;;39.85;13.75;;;8.10;99.90;;;;;;5106419;27;20054;-83
2022/12/26 00:20:49;;;;;;;41.15;13.85;;;8.10;99.90;;;;;;5119261;27;20077;-82
2022/12/26 00:23:15;;;;;;;41.90;13.32;;;8.00;99.90;;;;;;5110370;27;20548;-82
2022/12/26 00:25:40;;;;;;;36.15;12.80;;;8.10;99.90;;;;;;5106240;27;20400;-82
2022/12/26 00:28:06;;;;;;;40.50;14.13;;;8.10;99.90;;;;;;5121203;27;20492;-83
2022/12/26 00:30:31;;;;;;;39.03;13.43;;;8.10;99.90;;;;;;5102426;28;20404;-82
2022/12/26 00:32:57;;;;;;;43.88;14.60;;;8.10;99.90;;;;;;5107259;28;20039;-83
2022/12/26 00:35:23;;;;;;;49.00;14.68;;;8.10;99.90;;;;;;5106508;27;20040;-83
2022/12/26 00:37:48;;;;;;;44.42;14.57;;;8.10;99.90;;;;;;5125636;27;20028;-83
2022/12/26 00:40:14;;;;;;;51.50;15.48;;;8.10;99.90;;;;;;5126231;28;20052;-83
2022/12/26 00:42:39;;;;;;;52.00;14.75;;;8.10;99.90;;;;;;5103652;28;20486;-82
2022/12/26 00:45:05;;;;;;;46.25;14.85;;;8.00;99.90;;;;;;5102907;28;20409;-81
2022/12/26 00:47:31;;;;;;;46.97;14.50;;;8.10;99.90;;;;;;5101061;28;20441;-82
2022/12/26 00:49:56;;;;;;;54.70;15.40;;;8.00;99.90;;;;;;5101846;28;20043;-82
2022/12/26 00:52:22;;;;;;;58.33;15.68;;;8.10;99.90;;;;;;5104005;28;20035;-83
2022/12/26 00:54:47;;;;;;;54.95;16.35;;;8.00;99.90;;;;;;5101217;28;20042;-82
2022/12/26 00:57:13;;;;;;;58.15;15.55;;;8.10;99.90;;;;;;5120211;28;20042;-82
2022/12/26 00:59:38;;;;;;;58.00;16.40;;;8.00;99.90;;;;;;5106633;27;20043;-82
2022/12/26 01:02:36;;;;;;;58.63;16.33;;;8.10;99.90;;;;;;5107508;27;20038;-82
2022/12/26 01:04:49;;;;;;;62.75;17.40;;;8.10;99.90;;;;;;5104850;28;20103;-81
2022/12/26 01:07:15;;;;;;;59.83;17.33;;;8.10;99.90;;;;;;5101449;27;20503;-83
2022/12/26 01:09:40;;;;;;;64.88;17.77;;;8.00;99.90;;;;;;5112850;27;20480;-82
2022/12/26 01:12:06;;;;;;;56.15;16.38;;;8.00;99.90;;;;;;5111914;27;20557;-83
2022/12/26 01:14:31;;;;;;;59.92;17.80;;;8.10;99.90;;;;;;5126286;27;20511;-83
2022/12/26 01:16:57;;;;;;;65.85;17.73;;;8.10;99.90;;;;;;5124093;27;20495;-81
2022/12/26 01:19:23;;;;;;;57.38;16.85;;;8.10;99.90;;;;;;5114281;27;20515;-83
2022/12/26 01:21:48;;;;;;;61.45;17.27;;;8.10;99.90;;;;;;5110268;27;20074;-83
2022/12/26 01:24:14;;;;;;;61.03;16.85;;;8.10;99.90;;;;;;5102774;27;20043;-83
2022/12/26 01:26:39;;;;;;;56.75;16.27;;;8.10;99.90;;;;;;5107383;27;20036;-82
2022/12/26 01:29:05;;;;;;;56.55;16.20;;;8.10;99.90;;;;;;5101049;27;20108;-83
2022/12/26 01:31:30;;;;;;;63.97;16.15;;;8.10;99.90;;;;;;5100664;28;20035;-81
2022/12/26 01:33:56;;;;;;;51.50;16.40;;;8.10;99.90;;;;;;5110770;27;20042;-82
2022/12/26 01:36:21;;;;;;;67.95;17.25;;;8.10;99.90;;;;;;5103991;27;20114;-82
2022/12/26 01:38:47;;;;;;;61.47;17.13;;;8.10;99.90;;;;;;5125767;27;20071;-82
2022/12/26 01:41:15;;;;;;;58.72;17.92;;;8.10;99.90;;;;;;5092603;27;20035;-83
2022/12/26 01:44:05;;;;;;;61.67;18.60;;;8.10;99.90;;;;;;5112458;28;20043;-82
2022/12/26 01:46:42;;;;;;;56.95;18.02;;;8.10;99.90;;;;;;5095652;27;20050;-82
2022/12/26 01:49:32;;;;;;;61.10;18.52;;;8.10;99.90;;;;;;5115878;27;20042;-82
2022/12/26 01:52:10;;;;;;;58.33;17.10;;;8.10;99.90;;;;;;5134770;27;20042;-82
2022/12/26 01:54:39;;;;;;;51.83;16.60;;;8.10;99.90;;;;;;5105223;27;20473;-83
2022/12/26 01:57:09;;;;;;;54.67;17.38;;;8.10;99.90;;;;;;5122727;27;20035;-81
2022/12/26 01:59:38;;;;;;;51.70;17.27;;;8.10;99.90;;;;;;5110933;27;20054;-83
2022/12/26 02:02:04;;;;;;;50.88;16.08;;;8.10;99.90;;;;;;5103648;27;20039;-82
2022/12/26 02:07:20;;;;;;;47.50;15.70;;;8.10;99.90;;;;;;5128190;27;20043;-83
2022/12/26 02:09:45;;;;;;;45.88;15.68;;;8.10;99.90;;;;;;5109775;27;20035;-83
2022/12/26 02:12:32;;;;;;;49.20;15.90;;;8.10;99.90;;;;;;5129350;27;20449;-82
2022/12/26 02:14:58;;;;;;;54.25;15.70;;;8.10;99.90;;;;;;5118337;27;20075;-83
2022/12/26 02:17:27;;;;;;;48.75;15.85;;;8.10;99.90;;;;;;5103931;27;20107;-82
2022/12/26 02:20:16;;;;;;;48.35;15.77;;;7.90;99.90;;;;;;5108191;27;20553;-83
2022/12/26 02:23:06;;;;;;;41.92;15.63;;;8.10;99.90;;;;;;5127116;27;20043;-83
2022/12/26 02:25:47;;;;;;;47.85;15.38;;;8.10;99.90;;;;;;5107676;27;20055;-83
2022/12/26 02:28:27;;;;;;;43.60;14.82;;;8.20;99.90;;;;;;5129842;27;20053;-82
2022/12/26 02:31:13;;;;;;;45.88;15.00;;;8.10;99.90;;;;;;5129677;27;20042;-83
2022/12/26 02:34:01;;;;;;;40.08;14.35;;;8.10;99.90;;;;;;5102754;27;20039;-83
2022/12/26 02:36:36;;;;;;;43.58;14.25;;;8.10;99.90;;;;;;5124655;27;20031;-81
2022/12/26 02:39:20;;;;;;;37.08;14.60;;;8.10;99.90;;;;;;5107118;27;20040;-84
2022/12/26 02:42:01;;;;;;;;;;;8.10;99.90;;;;;;5100285;27;20039;-83
2022/12/26 02:47:43;;;;;;;32.33;13.02;;;8.10;99.90;;;;;;5118552;27;20584;-81
2022/12/26 03:13:22;;;;;;;36.28;17.45;;;8.30;99.90;;;;;;5103940;27;20055;-82
2022/12/26 03:18:52;;;;;;;40.63;19.20;;;8.30;99.90;;;;;;5125004;27;20498;-83
2022/12/26 03:21:23;;;;;;;40.13;20.50;;;8.30;99.90;;;;;;5126808;27;20462;-83
2022/12/26 03:23:54;;;;;;;41.38;19.50;;;8.30;99.90;;;;;;5101828;27;20035;-83
2022/12/26 03:26:39;;;;;;;42.15;19.77;;;8.30;99.90;;;;;;5108817;27;20032;-84
2022/12/26 03:31:56;;;;;;;43.05;19.48;;;8.30;99.90;;;;;;5105766;27;20043;-84
2022/12/26 03:34:22;;;;;;;46.95;21.05;;;8.40;99.90;;;;;;5105728;27;20046;-83
2022/12/26 03:37:10;;;;;;;47.35;21.55;;;8.40;99.90;;;;;;5104682;27;20122;-84
2022/12/26 04:45:03;;;;;;;48.13;21.88;;;8.50;99.90;;;;;;5121446;28;20510;-84
2022/12/26 04:47:31;;;;;;;47.75;21.27;;;8.50;99.90;;;;;;5104652;28;20042;-83
2022/12/26 04:50:12;;;;;;;49.33;21.65;;;8.50;99.90;;;;;;5124668;28;20062;-83
2022/12/26 04:52:59;;;;;;;48.10;23.25;;;8.50;99.90;;;;;;5106331;28;20042;-83
2022/12/26 04:55:26;;;;;;;48.08;21.77;;;8.50;99.90;;;;;;5112634;28;20051;-83
2022/12/26 04:57:52;;;;;;;47.45;23.40;;;8.50;99.90;;;;;;5129157;28;20385;-84
2022/12/26 05:00:18;;;;;;;46.63;22.05;;;8.50;99.90;;;;;;5123655;28;20091;-84
2022/12/26 05:11:16;;;;;;;46.33;21.77;;;8.40;99.90;;;;;;5124866;28;20477;-83
2022/12/26 05:13:41;;;;;;;43.25;22.55;;;8.40;99.90;;;;;;5109851;28;20039;-83
2022/12/26 05:29:49;;;;;;;42.85;21.77;;;8.40;99.90;;;;;;5105350;28;20530;-83
2022/12/26 05:34:58;;;;;;;38.72;20.70;;;8.40;99.90;;;;;;5116562;28;20044;-83
2022/12/26 05:37:24;;;;;;;40.70;22.23;;;8.30;99.90;;;;;;5110994;28;20039;-83
2022/12/26 05:39:49;;;;;;;39.42;21.58;;;8.40;99.90;;;;;;5100364;28;20035;-83
2022/12/26 05:42:15;;;;;;;38.63;22.08;;;8.30;99.90;;;;;;5099266;28;20031;-83
2022/12/26 05:44:40;;;;;;;37.47;20.98;;;8.30;99.90;;;;;;5105194;28;20089;-83
2022/12/26 05:47:06;;;;;;;39.60;20.73;;;8.30;99.90;;;;;;5111048;27;20042;-83
2022/12/26 05:49:31;;;;;;;38.70;21.60;;;8.30;99.90;;;;;;5105018;27;20125;-83
2022/12/26 05:51:57;;;;;;;40.08;23.63;;;8.30;99.90;;;;;;5109208;27;20154;-83
2022/12/26 05:54:22;;;;;;;38.47;20.70;;;8.40;99.90;;;;;;5116406;27;20067;-83
2022/12/26 05:56:48;;;;;;;35.58;21.05;;;8.40;99.90;;;;;;5123982;27;20038;-83
2022/12/26 05:59:13;;;;;;;37.08;22.90;;;8.40;99.90;;;;;;5110794;27;20039;-82
2022/12/26 06:01:39;;;;;;;37.65;22.73;;;8.40;99.90;;;;;;5109060;27;20047;-81
2022/12/26 06:04:04;;;;;;;38.88;22.15;;;8.40;99.90;;;;;;5128519;27;20035;-83
2022/12/26 06:06:30;;;;;;;37.90;22.20;;;8.40;99.90;;;;;;5130877;27;20126;-82
2022/12/26 06:08:56;;;;;;;36.05;21.45;;;8.40;99.90;;;;;;5129453;27;20488;-83
2022/12/26 06:11:25;;;;;;;33.45;21.30;;;8.40;99.90;;;;;;5124700;27;20040;-83
2022/12/26 06:13:51;;;;;;;38.47;22.58;;;8.40;99.90;;;;;;5127342;27;20034;-83
2022/12/26 06:16:17;;;;;;;33.70;21.27;;;8.40;99.90;;;;;;5113673;27;20321;-82
2022/12/26 06:18:43;;;;;;;31.75;19.92;;;8.40;99.90;;;;;;5109785;27;20036;-83
2022/12/26 06:21:11;;;;;;;30.10;19.25;;;8.40;99.90;;;;;;5107502;27;20514;-84
2022/12/26 06:23:37;;;;;;;31.55;19.25;;;8.40;99.90;;;;;;5114233;27;20043;-83
2022/12/26 06:26:04;;;;;;;30.50;18.80;;;8.50;99.90;;;;;;5105456;27;20046;-84
2022/12/26 06:28:29;;;;;;;28.58;18.65;;;8.40;99.90;;;;;;5129744;27;20075;-84
2022/12/26 06:31:02;;;;;;;29.88;18.83;;;8.40;99.90;;;;;;5133468;27;20047;-81
2022/12/26 06:33:28;;;;;;;32.17;19.75;;;8.40;99.90;;;;;;5112627;27;20043;-83
2022/12/26 06:35:53;;;;;;;28.05;18.27;;;8.40;99.90;;;;;;5107390;27;20070;-84
2022/12/26 06:38:19;;;;;;;32.53;19.85;;;8.50;99.90;;;;;;5101677;27;20035;-83
2022/12/26 06:40:44;;;;;;;28.77;17.90;;;8.50;99.90;;;;;;5109874;27;20043;-83
2022/12/26 06:43:10;;;;;;;32.00;18.95;;;8.40;99.90;;;;;;5106786;27;20035;-84
2022/12/26 06:45:35;;;;;;;27.80;17.58;;;8.40;99.90;;;;;;5128175;27;20039;-82
2022/12/26 06:48:01;;;;;;;28.35;18.48;;;8.50;99.90;;;;;;5112799;27;20066;-82
2022/12/26 06:50:27;;;;;;;26.33;17.17;;;8.40;99.90;;;;;;5126418;27;20118;-82
2022/12/26 06:52:52;;;;;;;27.45;17.23;;;8.50;99.90;;;;;;5117444;27;20076;-83
2022/12/26 06:55:18;;;;;;;26.95;17.35;;;8.50;99.90;;;;;;5111094;27;20126;-83
2022/12/26 06:57:43;;;;;;;29.08;17.48;;;8.50;99.90;;;;;;5128333;27;20039;-83
2022/12/26 07:00:10;;;;;;;27.02;16.42;;;8.50;99.90;;;;;;5105062;28;20469;-82
2022/12/26 07:02:35;;;;;;;26.13;16.13;;;8.60;99.90;;;;;;5125214;27;20035;-83
2022/12/26 07:05:01;;;;;;;27.15;16.83;;;8.50;99.90;;;;;;5109978;27;20091;-80
2022/12/26 07:07:26;;;;;;;22.70;14.90;;;8.60;99.90;;;;;;5124946;27;20031;-82
2022/12/26 07:09:52;;;;;;;26.83;16.48;;;8.60;99.90;;;;;;5107203;28;20088;-83
2022/12/26 07:12:20;;;;;;;24.58;15.40;;;8.60;99.90;;;;;;5104819;27;20116;-83
2022/12/26 07:14:46;;;;;;;23.73;14.85;;;8.60;99.90;;;;;;5104923;27;20043;-82
2022/12/26 07:17:12;;;;;;;26.58;16.33;;;8.60;99.90;;;;;;5103130;27;20119;-83
2022/12/26 07:19:37;;;;;;;25.23;16.33;;;8.60;99.90;;;;;;5114507;27;20142;-83
2022/12/26 07:22:03;;;;;;;21.05;14.93;;;8.60;99.90;;;;;;5111473;27;20047;-83
2022/12/26 07:24:28;;;;;;;25.50;15.68;;;8.60;99.90;;;;;;5119256;27;20047;-83
2022/12/26 07:26:54;;;;;;;21.33;13.82;;;8.60;99.90;;;;;;5129878;27;20038;-82
2022/12/26 07:29:20;;;;;;;21.95;13.63;;;8.60;99.90;;;;;;5112529;27;20114;-83
2022/12/26 07:31:46;;;;;;;21.08;13.20;;;8.60;99.90;;;;;;5109961;27;20035;-84
2022/12/26 07:34:12;;;;;;;20.73;13.02;;;8.60;99.90;;;;;;5107419;28;20054;-82
2022/12/26 07:36:38;;;;;;;22.77;13.60;;;8.60;99.90;;;;;;5111464;27;20035;-83
2022/12/26 07:39:03;;;;;;;21.55;12.45;;;8.60;99.90;;;;;;5127999;27;20051;-83
2022/12/26 07:44:13;;;;;;;19.45;12.10;;;8.50;99.90;;;;;;5112059;27;20039;-83
2022/12/26 07:46:38;;;;;;;19.33;12.13;;;8.50;99.90;;;;;;5103064;27;20035;-81
2022/12/26 07:49:04;;;;;;;23.13;13.07;;;8.50;99.90;;;;;;5108060;27;20042;-82
2022/12/26 07:51:30;;;;;;;21.05;12.23;;;8.50;99.90;;;;;;5130745;27;20042;-83
2022/12/26 07:53:55;;;;;;;20.33;11.93;;;8.50;99.90;;;;;;5102380;27;20087;-83
2022/12/26 07:56:21;;;;;;;18.67;11.80;;;8.40;99.90;;;;;;5120180;27;20032;-84
2022/12/26 07:58:50;;;;;;;19.60;11.27;;;8.50;99.90;;;;;;5091146;27;20103;-83
2022/12/26 08:01:16;;;;;;;21.15;11.48;;;8.50;99.90;;;;;;5131520;27;20050;-83
2022/12/26 08:03:42;;;;;;;20.35;12.07;;;8.50;99.90;;;;;;5108150;27;20111;-83
2022/12/26 08:06:11;;;;;;;17.55;10.60;;;8.50;99.90;;;;;;5106535;27;20093;-81
2022/12/26 08:08:37;;;;;;;19.17;11.43;;;8.50;99.90;;;;;;5110936;27;20047;-82
2022/12/26 08:11:04;;;;;;;14.07;10.43;;;8.60;99.90;;;;;;5112477;27;20046;-82
2022/12/26 08:13:30;;;;;;;14.95;10.18;;;8.60;99.90;;;;;;5106521;27;20059;-83
2022/12/26 08:15:56;;;;;;;17.08;10.35;;;8.60;99.90;;;;;;5112675;27;20411;-82
2022/12/26 08:18:22;;;;;;;15.65;9.63;;;8.60;99.90;;;;;;5134246;27;20027;-83
2022/12/26 08:20:48;;;;;;;15.52;9.27;;;8.60;99.90;;;;;;5105829;28;20035;-83
2022/12/26 08:23:14;;;;;;;17.92;9.70;;;8.70;99.90;;;;;;5125115;27;20156;-81
2022/12/26 08:25:40;;;;;;;15.35;9.30;;;8.70;99.90;;;;;;5113713;27;20063;-83
2022/12/26 08:28:05;;;;;;;14.70;9.18;;;8.70;99.90;;;;;;5129827;27;20409;-83
2022/12/26 08:30:31;;;;;;;17.33;9.88;;;8.70;99.90;;;;;;5126420;27;20088;-82
2022/12/26 08:32:57;;;;;;;13.32;9.25;;;8.70;99.90;;;;;;5111106;27;20054;-82
2022/12/26 08:35:22;;;;;;;17.02;9.30;;;8.70;99.90;;;;;;5114740;27;20057;-81
2022/12/26 08:37:48;;;;;;;14.38;8.23;;;8.70;99.90;;;;;;5098483;28;20473;-83
2022/12/26 08:40:13;;;;;;;15.13;8.98;;;8.70;99.90;;;;;;5124750;27;20686;-82
2022/12/26 08:42:39;;;;;;;13.38;8.07;;;8.70;99.90;;;;;;5113096;28;20054;-83
2022/12/26 08:45:05;;;;;;;14.70;8.85;;;8.70;99.90;;;;;;5100370;28;20045;-82
2022/12/26 08:47:30;;;;;;;17.50;9.52;;;8.80;99.90;;;;;;5124079;28;20042;-82
2022/12/26 08:49:56;;;;;;;16.98;9.10;;;8.80;99.90;;;;;;5102444;28;20031;-82
2022/12/26 08:52:21;;;;;;;17.30;9.40;;;8.80;99.90;;;;;;5129189;28;20526;-82
2022/12/26 08:54:47;;;;;;;17.98;9.02;;;8.80;99.90;;;;;;5126353;27;20039;-80
2022/12/26 08:57:13;;;;;;;13.65;8.75;;;8.70;99.90;;;;;;5115313;28;20039;-80
2022/12/26 08:59:38;;;;;;;12.40;9.18;;;8.70;99.90;;;;;;5109087;28;20065;-82
2022/12/26 09:02:04;;;;;;;16.98;9.20;;;8.70;99.90;;;;;;5115805;28;20047;-82
2022/12/26 09:04:29;;;;;;;12.98;8.68;;;8.70;99.90;;;;;;5107976;28;20051;-82
2022/12/26 09:06:55;;;;;;;17.23;9.75;;;8.70;99.90;;;;;;5129666;28;20036;-82
2022/12/26 09:09:20;;;;;;;15.77;10.63;;;8.70;99.90;;;;;;5111729;28;20040;-82
2022/12/26 09:11:46;;;;;;;18.05;10.85;;;8.70;99.90;;;;;;5115245;28;20134;-82
2022/12/26 09:14:12;;;;;;;19.42;9.63;;;8.70;99.90;;;;;;5110654;28;20035;-85
2022/12/26 09:16:45;;;;;;;15.00;9.63;;;8.70;99.90;;;;;;5123654;28;20031;-83
2022/12/26 09:19:13;;;;;;;15.50;9.18;;;8.70;99.90;;;;;;5126225;27;20039;-84
2022/12/26 09:21:39;;;;;;;19.88;9.65;;;8.70;99.90;;;;;;5107169;28;20039;-82
2022/12/26 09:24:09;;;;;;;16.65;9.65;;;8.70;99.90;;;;;;5132082;27;20031;-83
2022/12/26 09:26:35;;;;;;;16.83;9.40;;;8.70;99.90;;;;;;5105570;27;20039;-84
2022/12/26 09:29:00;;;;;;;14.80;8.90;;;8.70;99.90;;;;;;5125720;27;20092;-84
2022/12/26 09:31:28;;;;;;;19.90;8.68;;;8.80;99.90;;;;;;5109175;27;20070;-82
2022/12/26 09:33:54;;;;;;;13.75;8.18;;;8.80;99.90;;;;;;5112985;27;20046;-81
2022/12/26 09:36:26;;;;;;;14.00;7.63;;;8.80;99.90;;;;;;5129054;27;20036;-80
2022/12/26 09:38:53;;;;;;;9.10;6.82;;;8.80;99.90;;;;;;5113747;27;20039;-83
2022/12/26 09:41:52;;;;;;;12.48;6.57;;;8.80;99.90;;;;;;5116989;27;20046;-84
2022/12/26 09:44:42;;;;;;;12.95;5.28;;;8.80;99.90;;;;;;5117061;27;20089;-82
2022/12/26 09:47:20;;;;;;;12.48;5.65;;;8.90;99.90;;;;;;5104745;27;20046;-81
2022/12/26 09:49:56;;;;;;;14.65;5.00;;;8.90;99.90;;;;;;5114358;27;20043;-81
2022/12/26 09:53:10;;;;;;;15.27;4.90;;;8.90;99.90;;;;;;5111441;27;20482;-83
2022/12/26 09:55:53;;;;;;;13.45;4.03;;;8.70;99.90;;;;;;5101776;27;20086;-80
2022/12/26 09:58:29;;;;;;;10.82;2.85;;;8.50;99.90;;;;;;5126164;27;20062;-81
2022/12/26 10:01:04;;;;;;;11.48;2.05;;;8.20;99.90;;;;;;5135235;27;20051;-81
2022/12/26 10:03:36;;;;;;;9.82;1.92;;;7.90;99.90;;;;;;5113492;27;20035;-81
2022/12/26 10:06:17;;;;;;;14.88;2.55;;;7.70;99.90;;;;;;5115483;27;20039;-83
2022/12/26 10:09:03;;;;;;;9.52;2.20;;;7.60;99.90;;;;;;5111180;27;20071;-82
2022/12/26 10:11:49;;;;;;;9.98;2.17;;;7.50;99.90;;;;;;5131394;27;20561;-81
2022/12/26 10:14:35;;;;;;;6.57;1.60;;;7.40;99.90;;;;;;5112323;27;20039;-81
2022/12/26 10:17:20;;;;;;;10.45;2.85;;;7.40;99.90;;;;;;5112152;28;20086;-82
2022/12/26 10:20:23;;;;;;;15.07;2.83;;;7.40;99.90;;;;;;5127293;27;20039;-81
2022/12/26 10:23:35;;;;;;;13.50;2.70;;;7.40;99.90;;;;;;5108323;28;20511;-81
2022/12/26 10:26:19;;;;;;;10.57;1.90;;;7.40;99.90;;;;;;5007471;28;20088;-82
2022/12/26 10:28:54;;;;;;;11.23;1.92;;;7.40;99.90;;;;;;5103628;28;20043;-83
2022/12/26 10:31:27;;;;;;;16.13;2.15;;;7.40;99.90;;;;;;5106629;27;20039;-81
2022/12/26 10:34:05;;;;;;;10.00;1.75;;;7.40;99.90;;;;;;5110551;27;20096;-82
2022/12/26 10:36:47;;;;;;;7.70;1.85;;;7.40;99.90;;;;;;5107284;27;20046;-82
2022/12/26 10:39:29;;;;;;;12.45;1.95;;;7.40;99.90;;;;;;5111430;27;20056;-83
2022/12/26 10:41:58;;;;;;;9.77;1.42;;;7.40;99.90;;;;;;5109411;27;20079;-82
2022/12/26 10:44:24;;;;;;;11.68;2.40;;;7.40;99.90;;;;;;5120032;27;20084;-81
2022/12/26 10:47:02;;;;;;;10.50;2.20;;;7.30;99.90;;;;;;5106487;28;20051;-81
2022/12/26 10:49:28;;;;;;;13.70;2.45;;;7.30;99.90;;;;;;5110163;28;20044;-82
2022/12/26 10:51:57;;;;;;;11.60;2.88;;;7.30;99.90;;;;;;5098982;28;20031;-81
2022/12/26 10:54:23;;;;;;;12.00;2.17;;;7.30;99.90;;;;;;5098885;28;20039;-79
2022/12/26 10:56:50;;;;;;;9.02;1.35;;;7.30;99.90;;;;;;5117516;27;20038;-82
2022/12/26 10:59:22;;;;;;;12.85;2.40;;;7.20;99.90;;;;;;5120781;27;20747;-81
2022/12/26 11:01:48;;;;;;;7.63;1.40;;;7.10;99.90;;;;;;5131130;27;20419;-83
2022/12/26 11:04:21;;;;;;;6.20;1.02;;;7.10;99.90;;;;;;5109967;27;20119;-82
2022/12/26 11:06:51;;;;;;;11.57;2.00;;;7.10;99.90;;;;;;5124736;27;20049;-82
2022/12/26 11:09:34;;;;;;;13.15;2.88;;;7.10;99.90;;;;;;5105626;27;20043;-81
2022/12/26 11:12:00;;;;;;;14.50;2.85;;;7.10;99.90;;;;;;5112334;27;20114;-82
2022/12/26 11:14:41;;;;;;;9.45;2.70;;;7.10;99.90;;;;;;5112248;27;20052;-80
2022/12/26 11:17:11;;;;;;;14.43;2.08;;;7.20;99.90;;;;;;5111491;27;20035;-79
2022/12/26 11:19:40;;;;;;;11.68;2.25;;;7.10;99.90;;;;;;5109943;27;20062;-79
2022/12/26 11:22:25;;;;;;;11.00;2.78;;;7.10;99.90;;;;;;5118008;27;20469;-84
2022/12/26 11:25:08;;;;;;;9.32;2.20;;;7.10;99.90;;;;;;5128511;27;20058;-81
2022/12/26 11:27:54;;;;;;;13.43;2.80;;;7.10;99.90;;;;;;5128034;27;20084;-82
2022/12/26 11:30:25;;;;;;;9.20;1.75;;;7.00;99.90;;;;;;5114683;27;20564;-81
2022/12/26 11:33:05;;;;;;;8.80;1.77;;;7.00;99.90;;;;;;5107911;27;20512;-80
2022/12/26 11:35:36;;;;;;;11.88;1.50;;;7.00;99.90;;;;;;5136836;27;20039;-81
2022/12/26 11:38:06;;;;;;;10.40;1.65;;;7.00;99.90;;;;;;5134447;27;20039;-80
2022/12/26 11:41:30;;;;;;;12.98;2.67;;;7.00;99.90;;;;;;5121427;27;20047;-80
2022/12/26 11:43:32;;;;;;;8.00;1.60;;;6.90;99.90;;;;;;5125631;27;20043;-82
2022/12/26 11:45:58;;;;;;;7.15;1.50;;;7.00;99.90;;;;;;5128456;27;20044;-82
2022/12/26 11:48:26;;;;;;;10.52;1.60;;;7.00;99.90;;;;;;5117281;27;20044;-83
2022/12/26 11:50:52;;;;;;;9.07;2.00;;;7.00;99.90;;;;;;5122337;27;21235;-82
2022/12/26 11:53:20;;;;;;;10.77;1.90;;;7.00;99.90;;;;;;5092492;27;20610;-83
2022/12/26 11:55:58;;;;;;;8.77;1.63;;;7.00;99.90;;;;;;5110061;27;20058;-83
2022/12/26 11:58:28;;;;;;;7.97;1.60;;;7.00;99.90;;;;;;5111707;27;20031;-84
2022/12/26 12:01:00;;;;;;;10.50;1.50;;;7.00;99.90;;;;;;5098599;27;20052;-82
2022/12/26 12:03:41;;;;;;;10.98;2.00;;;7.00;99.90;;;;;;5101922;27;20455;-80
2022/12/26 12:06:20;;;;;;;12.30;2.17;;;7.00;99.90;;;;;;5106475;27;20106;-82
2022/12/26 12:09:13;;;;;;;9.30;2.40;;;7.10;99.90;;;;;;5126283;27;20036;-81
2022/12/26 12:12:15;;;;;;;10.02;1.95;;;7.10;99.90;;;;;;5111068;27;20043;-80
2022/12/26 12:15:09;;;;;;;7.57;2.08;;;7.00;99.90;;;;;;5128749;27;20035;-83
2022/12/26 12:18:17;;;;;;;12.35;1.73;;;7.10;99.90;;;;;;5124303;27;20122;-83
2022/12/26 12:21:13;;;;;;;14.73;1.92;;;7.10;99.90;;;;;;5103805;27;20043;-83
2022/12/26 12:24:10;;;;;;;12.10;2.00;;;7.10;99.90;;;;;;5098608;27;20127;-82
2022/12/26 12:26:59;;;;;;;12.52;1.98;;;7.10;99.90;;;;;;5119132;27;20507;-82
2022/12/26 12:29:58;;;;;;;12.70;2.85;;;7.10;99.90;;;;;;5115109;27;20042;-80
2022/12/26 12:32:49;;;;;;;10.75;1.92;;;7.10;99.90;;;;;;5105306;28;20107;-80
2022/12/26 12:35:33;;;;;;;13.68;2.35;;;7.00;99.90;;;;;;5112966;27;20443;-81
2022/12/26 12:38:25;;;;;;;11.90;2.20;;;7.10;99.90;;;;;;5106715;27;20050;-82
2022/12/26 12:41:31;;;;;;;13.30;2.22;;;7.20;99.90;;;;;;5126814;27;20074;-80
2022/12/26 12:44:11;;;;;;;10.50;1.90;;;7.30;99.90;;;;;;5105907;27;20107;-80
2022/12/26 12:46:55;;;;;;;12.60;2.85;;;7.40;99.90;;;;;;5118505;28;20126;-79
2022/12/26 12:49:36;;;;;;;11.77;2.15;;;7.50;99.90;;;;;;5109325;28;20078;-84
2022/12/26 12:52:22;;;;;;;13.40;2.10;;;7.60;99.90;;;;;;5111620;28;20063;-81
2022/12/26 12:55:08;;;;;;;11.35;2.33;;;7.80;99.90;;;;;;5110087;28;20067;-82
2022/12/26 12:58:01;;;;;;;15.00;2.10;;;7.90;99.90;;;;;;5120718;28;20431;-82
2022/12/26 13:00:36;;;;;;;9.52;1.60;;;8.10;99.90;;;;;;5123466;27;20073;-81
2022/12/26 13:03:22;;;;;;;19.63;2.35;;;8.10;99.90;;;;;;5113177;28;20101;-81
2022/12/26 13:06:03;;;;;;;9.82;1.98;;;8.10;99.90;;;;;;5121532;28;20121;-80
2022/12/26 13:08:40;;;;;;;13.00;1.92;;;8.10;99.90;;;;;;5121828;28;20396;-81
2022/12/26 13:11:38;;;;;;;9.07;1.95;;;8.00;99.90;;;;;;5121408;28;20043;-81
2022/12/26 13:14:30;;;;;;;14.45;1.92;;;8.20;99.90;;;;;;5102818;28;20108;-82
2022/12/26 13:17:01;;;;;;;10.93;2.17;;;8.10;99.90;;;;;;5102426;28;20039;-81
2022/12/26 13:19:40;;;;;;;13.68;2.10;;;7.80;99.90;;;;;;5102271;28;20607;-82
2022/12/26 13:22:24;;;;;;;11.20;2.47;;;7.80;99.90;;;;;;5120896;28;20044;-82
2022/12/26 13:24:57;;;;;;;11.63;2.03;;;7.70;99.90;;;;;;5102613;28;20044;-82
2022/12/26 13:27:36;;;;;;;12.00;1.95;;;7.90;99.90;;;;;;5103113;28;20040;-81
2022/12/26 13:30:12;;;;;;;14.00;1.98;;;8.10;99.90;;;;;;5102270;28;20050;-82
2022/12/26 13:32:38;;;;;;;11.68;1.67;;;8.20;99.90;;;;;;5100808;28;20044;-83
2022/12/26 13:35:04;;;;;;;11.38;1.92;;;8.10;99.90;;;;;;5120637;28;20044;-82
2022/12/26 13:37:39;;;;;;;13.52;1.77;;;7.90;99.90;;;;;;5101783;28;20087;-80
2022/12/26 13:40:20;;;;;;;11.45;1.83;;;7.60;99.90;;;;;;5102378;28;20048;-82
2022/12/26 13:45:42;;;;;;;13.15;2.72;;;7.20;99.90;;;;;;5120256;28;20039;-82
2022/12/26 13:48:14;;;;;;;18.13;2.60;;;7.00;99.90;;;;;;5100927;28;20043;-81
2022/12/26 13:50:56;;;;;;;16.75;3.65;;;6.90;99.90;;;;;;5120014;28;20051;-81
2022/12/26 13:53:24;;;;;;;18.10;3.85;;;6.90;99.90;;;;;;5102120;28;20118;-81
2022/12/26 13:56:02;;;;;;;12.05;3.53;;;6.80;99.90;;;;;;5101875;28;20062;-82
2022/12/26 13:58:56;;;;;;;13.55;3.13;;;6.80;99.90;;;;;;5101027;28;20048;-82
2022/12/26 14:01:45;;;;;;;;;;;6.70;99.90;;;;;;5125778;27;20062;-82
2022/12/26 14:04:35;;;;;;;8.48;2.20;;;6.60;99.90;;;;;;5116643;27;20399;-80
2022/12/26 14:07:03;;;;;;;12.57;2.78;;;6.60;99.90;;;;;;5126183;27;20038;-80
2022/12/26 14:10:17;;;;;;;10.65;2.15;;;6.60;99.90;;;;;;5124692;27;20059;-81
2022/12/26 14:13:06;;;;;;;9.50;1.75;;;6.60;99.90;;;;;;5088614;27;20043;-81
2022/12/26 14:15:40;;;;;;;9.52;1.60;;;6.60;99.90;;;;;;5107782;27;20112;-82
2022/12/26 14:18:14;;;;;;;12.95;2.00;;;6.60;99.90;;;;;;5115033;27;20114;-82
2022/12/26 14:21:27;;;;;;;8.10;1.83;;;6.60;99.90;;;;;;5111640;27;20039;-81
2022/12/26 14:24:11;;;;;;;16.17;2.00;;;6.70;99.90;;;;;;5040870;27;20087;-81
2022/12/26 14:26:54;;;;;;;12.80;1.83;;;6.70;99.90;;;;;;5112838;27;20039;-82
2022/12/26 14:29:33;;;;;;;9.38;1.58;;;6.60;99.90;;;;;;5109497;27;20062;-81
2022/12/26 14:32:28;;;;;;;11.13;1.90;;;6.50;99.90;;;;;;5103578;27;20101;-82
2022/12/26 14:35:09;;;;;;;11.48;2.15;;;6.50;99.90;;;;;;5104919;27;20535;-80
2022/12/26 14:38:11;;;;;;;12.07;1.85;;;6.40;99.90;;;;;;5106921;27;20043;-83
2022/12/26 14:40:55;;;;;;;11.82;2.35;;;6.20;99.90;;;;;;5115076;27;20114;-81
2022/12/26 14:43:40;;;;;;;15.93;5.22;;;6.10;99.90;;;;;;5103766;27;20032;-81
2022/12/26 14:46:28;;;;;;;22.83;8.57;;;6.00;99.90;;;;;;5101727;27;20032;-81
2022/12/26 14:49:16;;;;;;;20.30;9.10;;;5.90;99.90;;;;;;5114096;27;20069;-81
2022/12/26 14:51:42;;;;;;;18.08;5.05;;;5.90;99.90;;;;;;5115926;27;20047;-81
2022/12/26 14:54:35;;;;;;;13.48;2.75;;;5.90;99.90;;;;;;5103273;28;20039;-81
2022/12/26 14:57:20;;;;;;;12.90;2.95;;;5.90;99.90;;;;;;5096294;27;20051;-81
2022/12/26 15:00:12;;;;;;;15.27;2.67;;;5.90;99.90;;;;;;5127089;27;20046;-81
2022/12/26 15:02:46;;;;;;;11.95;2.22;;;5.90;99.90;;;;;;5124943;27;20050;-81
2022/12/26 15:05:24;;;;;;;11.70;2.17;;;5.90;99.90;;;;;;5119378;27;20034;-81
2022/12/26 15:08:08;;;;;;;12.77;3.10;;;5.80;99.90;;;;;;5104651;28;20047;-81
2022/12/26 15:10:51;;;;;;;10.52;2.90;;;5.70;99.90;;;;;;5113102;27;20057;-81
2022/12/26 15:13:45;;;;;;;14.10;3.13;;;5.70;99.90;;;;;;5113990;27;20084;-80
2022/12/26 15:16:22;;;;;;;11.82;2.40;;;5.60;99.90;;;;;;5114241;27;20048;-81
2022/12/26 15:19:07;;;;;;;20.58;5.50;;;5.60;99.90;;;;;;5108236;27;20054;-81
2022/12/26 15:21:43;;;;;;;17.23;5.43;;;5.50;99.90;;;;;;5102770;27;20085;-81
2022/12/26 15:24:44;;;;;;;13.48;3.60;;;5.50;99.90;;;;;;5117231;27;20057;-81
2022/12/26 15:27:34;;;;;;;17.40;2.97;;;5.50;99.90;;;;;;5097738;28;20115;-81